Latest Weather Observations for Orbost

IDV60801

Issued at 10:31 am EST Monday 3 August 2015 (issued every 30 minutes, with the page automatically refreshed every 10 minutes)

About weather observations | Map of weather stations | Latest weather observations for VIC | Other Formats
Station Details ID: 084145 Name: ORBOST Lat: -37.69 Lon: 148.47 Height: 62.65 m
Data from the previous 72 hours. | See also: Recent months at Orbost
Date/Time
EST
Temp
°C
App
Temp
°C
Dew
Point
Rel
Hum
%
Delta-T
°C
Wind Press
QNH
hPa
Press
MSL
hPa
Rain
since 9 am
mm
Dir
 
Spd
km/h
Gust
km/h
Spd
kts
Gust
kts
03/10:30am 6.4 1.3 3.9 84 1.1 W 20 30 11 16 1014.2 1014.2 1.6
03/10:00am 6.0 0.1 3.8 86 0.9 W 24 41 13 22 1013.6 1013.6 1.4
03/09:39am 6.1 -0.5 4.3 88 0.8 W 28 48 15 26 1013.1 1013.1 1.2
03/09:30am 6.2 0.0 4.5 89 0.7 W 26 44 14 24 1013.0 1013.0 0.8
03/09:00am 6.7 0.2 4.7 87 0.9 WSW 28 48 15 26 1012.5 1012.5 1.2
03/08:30am 7.1 1.1 5.1 87 0.9 WSW 26 41 14 22 1011.4 1011.4 1.2
03/08:14am 8.1 3.3 4.7 79 1.5 WSW 19 41 10 22 1011.2 1011.2 1.0
03/08:00am 9.5 6.0 3.7 67 2.5 W 11 20 6 11 1010.4 1010.4 0.8
03/07:30am 10.7 6.6 2.5 57 3.5 W 13 22 7 12 1009.5 1009.5 0.8
03/07:00am 10.9 6.8 2.2 55 3.7 WNW 13 22 7 12 1008.8 1008.8 0.8
03/06:30am 10.9 6.5 2.5 56 3.6 NW 15 28 8 15 1008.2 1008.2 0.8
03/06:00am 10.7 5.5 2.5 57 3.5 NW 19 30 10 16 1007.7 1007.7 0.8
03/05:30am 10.1 5.3 2.5 59 3.2 NNW 17 28 9 15 1007.6 1007.6 0.8
03/05:00am 9.4 4.9 2.3 61 3.0 NNW 15 22 8 12 1007.7 1007.7 0.8
03/04:30am 9.6 5.2 2.7 62 3.0 NNW 15 20 8 11 1007.9 1007.9 0.8
03/04:00am 7.6 3.9 4.2 79 1.5 N 13 30 7 16 1008.2 1008.2 0.8
03/03:30am 6.5 4.2 4.7 88 0.8 N 6 6 3 3 1008.3 1008.3 0.8
03/03:00am 6.7 4.7 4.2 84 1.1 NNW 4 6 2 3 1008.7 1008.7 0.8
03/02:30am 6.8 4.6 3.2 78 1.5 NW 4 7 2 4 1008.8 1008.8 0.8
03/02:00am 7.4 5.0 2.1 69 2.2 WNW 4 7 2 4 1008.5 1008.5 0.8
03/01:30am 8.0 6.4 2.3 67 2.4 CALM 0 0 0 0 1008.5 1008.5 0.8
03/01:00am 7.4 5.8 2.7 72 2.0 CALM 0 2 0 1 1008.4 1008.4 0.8
03/12:30am 7.8 6.3 2.9 71 2.1 CALM 0 2 0 1 1008.5 1008.5 0.8
03/12:00am 7.9 6.0 3.0 71 2.1 E 2 4 1 2 1008.7 1008.7 0.8
 
Date/Time
EST
Temp
°C
App
Temp
°C
Dew
Point
Rel
Hum
%
Delta-T
°C
Wind Press
QNH
hPa
Press
MSL
hPa
Rain
since 9 am
mm
Dir
 
Spd
km/h
Gust
km/h
Spd
kts
Gust
kts
02/11:30pm 8.5 6.9 2.3 65 2.6 CALM 0 2 0 1 1009.1 1009.1 0.8
02/11:00pm 9.2 6.7 1.6 59 3.2 NNW 4 6 2 3 1009.3 1009.3 0.8
02/10:30pm 9.1 6.1 1.8 60 3.0 N 7 9 4 5 1009.5 1009.5 0.8
02/10:00pm 9.7 6.1 0.9 54 3.6 NNW 9 13 5 7 1009.5 1009.5 0.8
02/09:30pm 10.2 5.5 1.1 53 3.8 NNW 15 20 8 11 1009.6 1009.6 0.8
02/09:00pm 10.6 5.1 0.6 50 4.1 NNW 19 26 10 14 1009.8 1009.8 0.8
02/08:30pm 10.5 5.0 0.8 51 4.0 NNW 19 26 10 14 1009.7 1009.7 0.8
02/08:00pm 10.6 5.1 0.9 51 4.0 NNW 19 30 10 16 1010.0 1010.0 0.8
02/07:30pm 11.0 5.6 1.0 50 4.2 NW 19 33 10 18 1009.9 1009.9 0.8
02/07:00pm 11.2 5.4 2.2 54 3.9 NNW 22 33 12 18 1009.8 1009.8 0.8
02/06:30pm 10.6 6.1 4.1 64 2.9 NW 17 28 9 15 1009.7 1009.7 0.8
02/06:00pm 8.4 6.5 6.9 90 0.7 NW 6 7 3 4 1009.1 1009.1 0.8
02/05:30pm 9.1 7.6 6.7 85 1.1 NNW 4 4 2 2 1008.6 1008.6 0.8
02/05:00pm 10.9 9.6 7.6 80 1.6 NNW 4 6 2 3 1008.0 1008.0 0.8
02/04:30pm 11.8 9.9 7.7 76 2.0 NNW 7 9 4 5 1008.0 1008.0 0.8
02/04:00pm 12.1 10.1 7.2 72 2.4 NNW 7 9 4 5 1007.9 1007.9 0.8
02/03:30pm 12.2 10.2 7.3 72 2.4 NNW 7 11 4 6 1008.1 1008.1 0.8
02/03:00pm 12.0 10.0 6.9 71 2.5 WNW 7 13 4 7 1008.5 1008.5 0.8
02/02:30pm 11.7 9.7 7.2 74 2.2 NW 7 9 4 5 1008.4 1008.4 0.8
02/02:00pm 10.8 8.7 6.6 75 2.0 W 7 11 4 6 1008.4 1008.4 0.8
02/01:30pm 10.3 8.6 7.7 84 1.3 WSW 6 9 3 5 1008.4 1008.4 0.8
02/01:00pm 9.5 8.1 7.1 85 1.1 W 4 7 2 4 1009.1 1009.1 0.8
02/12:30pm 8.9 6.1 7.0 88 0.9 NNW 11 13 6 7 1009.3 1009.3 0.8
02/12:00pm 8.3 5.9 6.8 90 0.7 N 9 13 5 7 1010.0 1010.0 0.8
02/11:30am 8.0 6.1 6.6 91 0.6 N 6 11 3 6 1010.7 1010.7 0.8
02/11:00am 7.8 5.3 6.7 93 0.5 N 9 11 5 6 1011.3 1011.3 0.8
02/10:30am 7.1 4.8 5.9 92 0.5 NNW 7 9 4 5 1012.1 1012.1 0.4
02/10:00am 7.1 5.0 6.0 93 0.5 N 6 9 3 5 1011.9 1011.9 0.4
02/09:30am 6.9 4.9 6.2 95 0.3 N 6 7 3 4 1012.6 1012.6 0.2
02/09:00am 6.7 5.1 6.3 97 0.2 NNW 4 6 2 3 1012.9 1012.9 4.2
02/08:30am 6.5 5.2 6.1 97 0.2 NW 2 2 1 1 1013.1 1013.1 4.2
02/08:00am 6.4 5.1 6.0 97 0.2 WNW 2 4 1 2 1013.1 1013.1 3.8
02/07:30am 6.3 4.9 5.7 96 0.3 NW 2 4 1 2 1012.6 1012.6 3.4
02/07:00am 6.4 5.0 5.7 95 0.3 WNW 2 4 1 2 1012.4 1012.4 3.0
02/06:30am 6.5 4.7 5.6 94 0.4 NNE 4 6 2 3 1012.2 1012.2 2.8
02/06:00am 6.4 5.4 5.7 95 0.3 CALM 0 2 0 1 1012.2 1012.2 2.8
02/05:30am 6.3 4.9 5.4 94 0.4 NNE 2 4 1 2 1012.6 1012.6 2.6
02/05:00am 6.4 5.4 5.5 94 0.4 CALM 0 0 0 0 1012.6 1012.6 2.6
02/04:30am 6.3 5.2 5.3 93 0.4 CALM 0 0 0 0 1012.9 1012.9 2.6
02/04:00am 6.7 5.6 5.3 91 0.6 CALM 0 0 0 0 1013.2 1013.2 2.6
02/03:30am 6.5 5.4 5.0 90 0.7 CALM 0 0 0 0 1013.9 1013.9 2.6
02/03:00am 7.0 4.8 5.3 89 0.8 NNE 6 7 3 4 1014.1 1014.1 2.6
02/02:30am 7.0 5.2 5.5 90 0.7 N 4 6 2 3 1014.5 1014.6 2.6
02/02:00am 7.1 6.0 5.1 87 0.9 CALM 0 0 0 0 1015.1 1015.2 2.6
02/01:30am 7.6 5.2 5.4 86 1.0 NNE 7 9 4 5 1015.1 1015.2 2.6
02/01:00am 7.1 5.7 5.4 89 0.8 NW 2 6 1 3 1015.5 1015.6 2.6
02/12:30am 7.6 5.4 5.4 86 1.0 N 6 7 3 4 1015.3 1015.4 2.6
02/12:00am 7.5 5.4 5.6 88 0.9 NNE 6 7 3 4 1015.2 1015.3 2.6
 
Date/Time
EST
Temp
°C
App
Temp
°C
Dew
Point
Rel
Hum
%
Delta-T
°C
Wind Press
QNH
hPa
Press
MSL
hPa
Rain
since 9 am
mm
Dir
 
Spd
km/h
Gust
km/h
Spd
kts
Gust
kts
01/11:30pm 7.2 5.1 5.7 90 0.7 NNW 6 7 3 4 1016.3 1016.4 2.6
01/11:00pm 7.4 5.3 6.0 91 0.6 NNE 6 6 3 3 1015.8 1015.9 2.6
01/10:30pm 7.4 6.0 5.5 88 0.9 NNE 2 6 1 3 1016.1 1016.2 2.6
01/10:00pm 7.6 5.6 6.1 90 0.7 NNW 6 9 3 5 1016.4 1016.5 2.6
01/09:30pm 7.8 5.6 6.1 89 0.8 N 7 9 4 5 1016.0 1016.1 2.6
01/09:00pm 7.9 5.7 6.4 90 0.7 N 7 9 4 5 1016.2 1016.3 2.6
01/08:30pm 8.0 6.1 6.6 91 0.6 N 6 7 3 4 1016.2 1016.3 2.6
01/08:00pm 7.9 6.0 6.7 92 0.6 N 6 6 3 3 1016.3 1016.4 2.6
01/07:30pm 8.2 6.7 6.7 90 0.7 NNW 4 6 2 3 1016.2 1016.3 2.6
01/07:00pm 8.3 6.3 6.9 91 0.7 N 7 9 4 5 1015.9 1016.0 2.6
01/06:30pm 8.5 6.5 7.1 91 0.7 N 7 9 4 5 1015.5 1015.6 2.6
01/06:00pm 8.8 6.8 7.1 89 0.8 NNW 7 9 4 5 1015.5 1015.6 2.6
01/05:30pm 8.8 6.9 7.6 92 0.6 NNW 7 9 4 5 1015.2 1015.3 2.6
01/05:00pm 9.0 7.4 8.1 94 0.4 N 6 7 3 4 1014.9 1015.0 2.6
01/04:30pm 9.1 8.3 8.0 93 0.5 NW 2 4 1 2 1014.8 1014.9 2.6
01/04:00pm 9.1 7.9 8.0 93 0.5 NW 4 7 2 4 1014.3 1014.3 2.6
01/03:30pm 9.1 7.9 8.0 93 0.5 NW 4 9 2 5 1014.2 1014.2 2.6
01/03:00pm 9.0 7.2 8.1 94 0.4 W 7 11 4 6 1013.9 1013.9 2.4
01/02:30pm 9.0 6.5 8.1 94 0.4 WSW 11 19 6 10 1013.5 1013.5 2.4
01/02:00pm 9.2 5.9 8.1 93 0.5 WSW 15 20 8 11 1013.0 1013.0 2.0
01/01:30pm 9.5 6.3 8.4 93 0.5 SW 15 22 8 12 1012.6 1012.6 1.6
01/01:00pm 9.9 5.5 9.1 95 0.4 SW 22 35 12 19 1012.4 1012.4 1.0
01/12:30pm 10.8 7.1 9.6 92 0.6 SW 19 33 10 18 1011.8 1011.8 0.4
01/12:00pm 12.6 10.5 9.8 83 1.4 WSW 11 19 6 10 1011.3 1011.3 0.0
01/11:30am 13.2 9.9 9.5 78 1.9 SW 17 24 9 13 1011.0 1011.0 0.0
01/11:00am 15.9 12.6 8.2 60 3.9 WSW 15 22 8 12 1010.4 1010.4 0.0
01/10:30am 15.7 13.6 8.4 62 3.7 W 9 17 5 9 1009.6 1009.6 0.0
01/10:00am 14.7 13.0 7.5 62 3.6 W 6 9 3 5 1009.2 1009.2 0.0
01/09:30am 14.1 13.3 6.7 61 3.6 CALM 0 2 0 1 1008.6 1008.6 0.0
01/09:00am 11.1 9.6 7.0 76 2.0 S 4 7 2 4 1008.8 1008.8 0.0
01/08:30am 10.6 9.3 6.0 73 2.1 N 2 4 1 2 1008.3 1008.3 0.0
01/08:00am 9.2 7.7 5.2 76 1.8 N 2 6 1 3 1008.4 1008.4 0.0
01/07:30am 7.1 5.3 3.3 77 1.6 NNW 2 4 1 2 1008.5 1008.5 0.0
01/07:00am 9.6 7.5 4.0 68 2.5 E 4 6 2 3 1008.5 1008.5 0.0
01/06:30am 10.9 8.4 3.7 61 3.2 ENE 6 7 3 4 1008.9 1008.9 0.0
01/06:00am 11.1 8.1 3.9 61 3.2 NE 9 13 5 7 1009.1 1009.1 0.0
01/05:30am 8.2 5.9 2.9 69 2.2 NW 4 6 2 3 1009.8 1009.8 0.0
01/05:00am 8.9 5.6 2.7 65 2.6 NNE 9 13 5 7 1009.8 1009.8 0.0
01/04:30am 10.3 7.4 1.7 55 3.6 N 6 9 3 5 1010.7 1010.7 0.0
01/04:00am 10.5 7.6 2.4 57 3.5 NNE 7 13 4 7 1011.0 1011.0 0.0
01/03:30am 9.3 6.0 2.4 62 2.9 N 9 13 5 7 1011.6 1011.6 0.0
01/03:27am 9.1 5.8 2.4 63 2.8 N 9 13 5 7 1011.6 1011.6 0.0
01/03:00am 4.1 2.1 2.5 89 0.6 WSW 2 4 1 2 1012.2 1012.3 0.0
01/02:30am 5.1 2.9 3.1 87 0.8 NE 4 6 2 3 1012.3 1012.4 0.0
01/02:00am 5.5 3.7 3.5 87 0.8 WNW 2 6 1 3 1012.6 1012.7 0.0
01/01:30am 4.4 2.7 4.0 97 0.2 WNW 2 6 1 3 1012.6 1012.7 0.0
01/01:00am 2.4 0.3 1.8 96 0.2 WSW 2 6 1 3 1012.8 1012.9 0.0
01/12:30am 2.9 0.2 2.5 97 0.2 N 6 9 3 5 1012.4 1012.5 0.0
01/12:00am 3.6 2.1 3.2 97 0.2 CALM 0 0 0 0 1013.2 1013.3 0.0
 
Date/Time
EST
Temp
°C
App
Temp
°C
Dew
Point
Rel
Hum
%
Delta-T
°C
Wind Press
QNH
hPa
Press
MSL
hPa
Rain
since 9 am
mm
Dir
 
Spd
km/h
Gust
km/h
Spd
kts
Gust
kts
31/11:30pm 3.7 2.2 3.1 96 0.2 CALM 0 0 0 0 1013.7 1013.8 0.0
31/11:00pm 4.0 2.6 3.4 96 0.2 CALM 0 0 0 0 1014.2 1014.3 0.0
31/10:30pm 3.9 2.5 3.3 96 0.2 CALM 0 0 0 0 1014.8 1014.9 0.0
31/10:00pm 3.8 2.0 3.2 96 0.2 ESE 2 4 1 2 1015.3 1015.4 0.0
31/09:30pm 4.5 3.1 3.8 95 0.3 CALM 0 0 0 0 1015.9 1016.0 0.0
31/09:00pm 4.7 3.0 4.0 95 0.3 ENE 2 4 1 2 1016.0 1016.1 0.0
31/08:30pm 4.8 3.4 3.5 91 0.5 CALM 0 0 0 0 1016.6 1016.7 0.0
31/08:00pm 5.6 4.3 4.1 90 0.6 CALM 0 0 0 0 1016.6 1016.7 0.0
31/07:30pm 5.4 3.3 3.7 89 0.7 N 4 4 2 2 1016.8 1016.9 0.0
31/07:00pm 6.9 5.8 4.9 87 0.9 CALM 0 0 0 0 1016.8 1016.9 0.0
31/06:30pm 6.7 4.8 4.7 87 0.9 E 4 6 2 3 1016.6 1016.7 0.0
31/06:00pm 7.5 5.6 4.8 83 1.2 E 4 6 2 3 1016.8 1016.9 0.0
31/05:30pm 8.6 6.4 5.2 79 1.5 ESE 6 9 3 5 1016.8 1016.9 0.0
31/05:00pm 9.5 7.3 5.3 75 1.9 ESE 6 9 3 5 1016.9 1017.0 0.0
31/04:30pm 10.4 8.6 5.2 70 2.4 SE 4 7 2 4 1017.3 1017.4 0.0
31/04:00pm 11.1 8.9 5.2 67 2.7 SSE 6 11 3 6 1017.7 1017.8 0.0
31/03:30pm 11.4 9.2 5.1 65 2.9 SE 6 11 3 6 1017.6 1017.7 0.0
31/03:00pm 11.6 9.1 4.8 63 3.1 SE 7 15 4 8 1018.0 1018.1 0.0
31/02:30pm 12.1 9.8 4.8 61 3.3 SE 6 9 3 5 1018.5 1018.6 0.0
31/02:00pm 11.3 9.0 5.0 65 2.9 SSE 6 11 3 6 1018.6 1018.7 0.0
31/01:30pm 12.3 10.1 5.2 62 3.3 ESE 6 13 3 7 1018.6 1018.7 0.0
31/01:00pm 12.9 10.7 3.6 53 4.2 NNW 4 9 2 5 1019.0 1019.1 0.0
31/12:30pm 11.9 9.7 3.4 56 3.8 WSW 4 9 2 5 1019.7 1019.8 0.0
31/12:00pm 12.1 9.8 4.6 60 3.4 W 6 9 3 5 1020.6 1020.7 0.0
31/11:30am 11.5 9.0 4.0 60 3.4 WSW 6 9 3 5 1020.9 1021.0 0.0
31/11:00am 11.0 8.4 4.0 62 3.1 W 7 11 4 6 1021.1 1021.2 0.0

Other Formats:

Comma delimited format used in spreadsheet applications
http://www.bom.gov.au/fwo/IDV60801/IDV60801.95918.axf

JavaScript Object Notation format (JSON) in row-major order
http://www.bom.gov.au/fwo/IDV60801/IDV60801.95918.json